createdAt,value
2023-03-16T00:01:23.919Z,2.08
2023-03-16T00:04:26.729Z,2.70
2023-03-16T00:07:29.283Z,2.60
2023-03-16T00:10:31.876Z,2.05
2023-03-16T00:13:34.467Z,1.92
2023-03-16T00:16:37.323Z,2.13
2023-03-16T00:19:39.893Z,2.67
2023-03-16T00:22:43.156Z,2.78
2023-03-16T00:25:45.663Z,4.70
2023-03-16T00:28:48.580Z,3.88
2023-03-16T00:31:52.353Z,3.30
2023-03-16T00:34:55.595Z,2.60
2023-03-16T00:37:58.266Z,2.50
2023-03-16T00:41:04.224Z,2.33
2023-03-16T00:44:06.886Z,2.10
2023-03-16T00:47:14.756Z,1.95
2023-03-16T00:50:17.277Z,2.38
2023-03-16T00:53:19.888Z,1.83
2023-03-16T00:56:22.710Z,2.83
2023-03-16T00:59:26.453Z,2.30
2023-03-16T01:02:29.055Z,2.22
2023-03-16T01:05:33.788Z,2.57
2023-03-16T01:08:40.785Z,2.72
2023-03-16T01:11:44.061Z,2.15
2023-03-16T01:14:47.175Z,1.83
2023-03-16T01:17:49.976Z,3.08
2023-03-16T01:20:53.487Z,2.92
2023-03-16T01:23:56.631Z,2.33
2023-03-16T01:26:59.469Z,2.20
2023-03-16T01:30:02.760Z,2.42
2023-03-16T01:33:06.492Z,2.08
2023-03-16T01:36:12.510Z,2.70
2023-03-16T01:39:22.208Z,2.30
2023-03-16T01:42:25.771Z,2.42
2023-03-16T01:46:14.300Z,1.95
2023-03-16T01:49:24.637Z,2.00
2023-03-16T01:52:35.872Z,2.05
2023-03-16T01:55:39.015Z,2.50
2023-03-16T01:58:45.649Z,0.93
2023-03-16T02:01:51.995Z,1.70
2023-03-16T02:05:09.736Z,1.25
2023-03-16T02:08:13.546Z,1.80
2023-03-16T02:11:19.813Z,1.80
2023-03-16T02:14:39.304Z,2.05
2023-03-16T02:17:43.899Z,1.98
2023-03-16T02:20:48.819Z,1.92
2023-03-16T02:23:52.332Z,2.20
2023-03-16T02:27:09.454Z,2.40
2023-03-16T02:30:18.879Z,2.20
2023-03-16T02:33:34.096Z,1.85
2023-03-16T02:36:38.688Z,2.33
2023-03-16T02:39:44.270Z,1.93
2023-03-16T02:42:59.034Z,1.90
2023-03-16T02:46:05.606Z,3.00
2023-03-16T02:49:17.929Z,1.98
2023-03-16T02:52:21.751Z,1.85
2023-03-16T02:55:24.319Z,2.03
2023-03-16T02:58:28.166Z,2.20
2023-03-16T03:01:32.604Z,1.97
2023-03-16T03:04:35.750Z,1.95
2023-03-16T03:07:38.587Z,2.17
2023-03-16T03:10:43.518Z,2.07
2023-03-16T03:13:47.197Z,2.03
2023-03-16T03:16:54.982Z,1.70
2023-03-16T03:19:58.893Z,1.85
2023-03-16T03:23:03.450Z,1.45
2023-03-16T03:26:06.568Z,2.03
2023-03-16T03:29:09.571Z,2.17
2023-03-16T03:32:12.910Z,1.60
2023-03-16T03:35:16.560Z,1.83
2023-03-16T03:38:19.421Z,1.90
2023-03-16T03:41:22.729Z,1.70
2023-03-16T03:44:27.489Z,1.75
2023-03-16T03:47:31.887Z,1.73
2023-03-16T03:50:35.689Z,2.58
2023-03-16T03:53:59.116Z,2.20
2023-03-16T03:57:22.066Z,2.78
2023-03-16T04:00:25.769Z,2.70
2023-03-16T04:03:28.972Z,2.40
2023-03-16T04:06:31.820Z,1.80
2023-03-16T04:09:34.547Z,2.45
2023-03-16T04:12:37.989Z,2.83
2023-03-16T04:15:42.733Z,2.38
2023-03-16T04:18:54.817Z,2.72
2023-03-16T04:21:59.009Z,2.70
2023-03-16T04:25:04.053Z,2.35
2023-03-16T04:28:08.537Z,3.08
2023-03-16T04:31:14.976Z,2.70
2023-03-16T04:34:25.187Z,2.67
2023-03-16T04:37:32.034Z,3.17
2023-03-16T04:40:34.944Z,2.42
2023-03-16T04:43:46.045Z,2.60
2023-03-16T04:46:54.976Z,3.10
2023-03-16T04:50:04.387Z,3.08
2023-03-16T04:53:07.174Z,3.25
2023-03-16T04:56:18.530Z,2.78
2023-03-16T04:59:24.197Z,3.83
2023-03-16T05:02:36.440Z,2.28
2023-03-16T05:05:39.666Z,2.40
2023-03-16T05:08:43.761Z,2.30
2023-03-16T05:11:46.350Z,2.95
2023-03-16T05:14:49.821Z,2.60
2023-03-16T05:18:03.359Z,2.10
2023-03-16T05:21:06.705Z,2.17
2023-03-16T05:24:23.773Z,2.92
2023-03-16T05:27:27.001Z,3.30
2023-03-16T05:30:30.255Z,4.30
2023-03-16T05:33:36.762Z,3.55
2023-03-16T05:36:45.167Z,3.90
2023-03-16T05:39:51.438Z,4.40
2023-03-16T05:42:58.193Z,4.18
2023-03-16T05:46:01.871Z,4.50
2023-03-16T05:49:04.707Z,5.55
2023-03-16T05:52:07.799Z,7.47
2023-03-16T05:55:14.614Z,13.27
2023-03-16T05:58:18.294Z,11.02
2023-03-16T06:01:21.889Z,9.55
2023-03-16T06:04:25.959Z,5.10
2023-03-16T06:07:29.236Z,4.60
2023-03-16T06:10:32.926Z,4.38
2023-03-16T06:13:35.927Z,5.97
2023-03-16T06:16:39.218Z,6.97
2023-03-16T06:19:42.140Z,7.15
2023-03-16T06:22:45.605Z,3.75
2023-03-16T06:25:49.085Z,3.80
2023-03-16T06:28:53.341Z,4.40
2023-03-16T06:31:57.232Z,4.97
2023-03-16T06:35:02.308Z,4.78
2023-03-16T06:38:05.533Z,3.93
2023-03-16T06:41:32.764Z,5.45
2023-03-16T06:44:35.385Z,4.85
2023-03-16T06:47:44.473Z,3.33
2023-03-16T06:50:47.139Z,5.18
2023-03-16T06:53:55.380Z,3.53
2023-03-16T06:56:58.578Z,3.58
2023-03-16T07:00:03.854Z,3.97
2023-03-16T07:03:08.102Z,4.10
2023-03-16T07:06:13.710Z,5.30
2023-03-16T07:09:18.150Z,4.47
2023-03-16T07:12:20.888Z,4.07
2023-03-16T07:15:26.875Z,5.30
2023-03-16T07:18:33.083Z,4.80
2023-03-16T07:21:39.613Z,5.55
2023-03-16T07:24:46.986Z,4.90
2023-03-16T07:27:49.770Z,4.38
2023-03-16T07:31:03.698Z,4.65
2023-03-16T07:34:12.585Z,5.88
2023-03-16T07:37:25.582Z,6.95
2023-03-16T07:40:31.694Z,8.37
2023-03-16T07:43:41.927Z,8.40
2023-03-16T07:46:45.548Z,5.25
2023-03-16T07:49:48.733Z,4.47
2023-03-16T07:52:51.983Z,4.88
2023-03-16T07:55:54.866Z,4.75
2023-03-16T07:58:57.892Z,4.55
2023-03-16T08:02:00.724Z,4.00
2023-03-16T08:05:03.824Z,3.00
2023-03-16T08:08:09.744Z,2.00
2023-03-16T08:11:14.519Z,2.13
2023-03-16T08:14:26.553Z,1.90
2023-03-16T08:17:55.801Z,2.22
2023-03-16T08:21:01.537Z,2.57
2023-03-16T08:24:04.506Z,1.63
2023-03-16T08:27:07.078Z,2.40
2023-03-16T08:30:13.059Z,1.08
2023-03-16T08:33:23.712Z,2.13
2023-03-16T08:36:31.295Z,2.00
2023-03-16T08:39:36.257Z,1.80
2023-03-16T08:42:44.417Z,2.37
2023-03-16T08:45:48.770Z,2.22
2023-03-16T08:48:55.824Z,1.58
2023-03-16T08:52:00.891Z,2.17
2023-03-16T08:55:07.165Z,1.35
2023-03-16T08:58:10.858Z,2.65
2023-03-16T09:01:15.345Z,1.67
2023-03-16T09:04:18.437Z,0.98
2023-03-16T09:07:21.103Z,1.25
2023-03-16T09:10:23.679Z,0.93
2023-03-16T09:13:26.360Z,1.30
2023-03-16T09:16:30.898Z,1.77
2023-03-16T09:19:50.113Z,1.70
2023-03-16T09:22:55.846Z,1.50
2023-03-16T09:26:03.302Z,1.63
2023-03-16T09:29:06.977Z,1.23
2023-03-16T09:32:10.120Z,1.10
2023-03-16T09:35:13.113Z,2.30
2023-03-16T09:38:16.077Z,1.90
2023-03-16T09:41:22.500Z,1.90
2023-03-16T09:44:40.016Z,1.87
2023-03-16T09:47:46.605Z,2.58
2023-03-16T09:50:49.991Z,2.50
2023-03-16T09:53:58.670Z,2.43
2023-03-16T09:57:02.063Z,2.45
2023-03-16T10:00:32.807Z,1.83
2023-03-16T10:04:21.872Z,2.00
2023-03-16T10:07:42.776Z,2.63
2023-03-16T10:10:55.278Z,2.45
2023-03-16T10:14:38.051Z,2.08
2023-03-16T10:17:57.066Z,2.27
2023-03-16T10:21:00.707Z,1.90
2023-03-16T10:24:06.907Z,1.70
2023-03-16T10:27:18.758Z,2.30
2023-03-16T10:30:38.818Z,1.52
2023-03-16T10:33:42.524Z,1.88
2023-03-16T10:36:45.798Z,2.10
2023-03-16T10:39:49.573Z,2.67
2023-03-16T10:42:53.602Z,1.55
2023-03-16T10:46:02.421Z,1.70
2023-03-16T10:49:06.298Z,1.43
2023-03-16T10:52:20.244Z,1.77
2023-03-16T10:55:34.160Z,1.38
2023-03-16T10:58:42.565Z,1.60
2023-03-16T11:01:49.290Z,1.20
2023-03-16T11:04:53.229Z,1.80
2023-03-16T11:08:13.602Z,1.70
2023-03-16T11:11:35.076Z,1.73
2023-03-16T11:14:37.729Z,1.08
2023-03-16T11:17:45.758Z,1.85
2023-03-16T11:20:48.427Z,1.30
2023-03-16T11:23:55.178Z,1.75
2023-03-16T11:27:04.565Z,1.48
2023-03-16T11:30:22.040Z,1.70
2023-03-16T11:33:27.321Z,1.65
2023-03-16T11:36:45.022Z,1.08
2023-03-16T11:40:15.423Z,1.40
2023-03-16T11:43:39.530Z,1.60
2023-03-16T11:47:05.107Z,0.60
2023-03-16T11:50:11.408Z,1.77
2023-03-16T11:53:55.343Z,1.40
2023-03-16T11:57:03.230Z,1.30
2023-03-16T12:00:30.742Z,1.67
2023-03-16T12:03:58.370Z,5.37
2023-03-16T12:07:09.562Z,2.30
2023-03-16T12:10:23.771Z,3.92
2023-03-16T12:13:53.510Z,3.80
2023-03-16T12:17:04.840Z,3.72
2023-03-16T12:20:18.696Z,3.38
2023-03-16T12:23:42.172Z,1.95
2023-03-16T12:26:46.297Z,2.17
2023-03-16T12:30:20.504Z,1.40
2023-03-16T12:33:44.978Z,1.73
2023-03-16T12:37:13.514Z,1.67
2023-03-16T12:40:30.146Z,2.38
2023-03-16T12:43:51.769Z,1.80
2023-03-16T12:47:03.476Z,2.75
2023-03-16T12:50:09.431Z,1.80
2023-03-16T12:53:28.877Z,1.05
2023-03-16T12:56:43.286Z,1.83
2023-03-16T12:59:50.894Z,2.57
2023-03-16T13:02:56.300Z,2.20
2023-03-16T13:06:00.945Z,2.47
2023-03-16T13:09:07.249Z,1.47
2023-03-16T13:12:21.550Z,1.33
2023-03-16T13:15:24.358Z,1.80
2023-03-16T13:18:36.061Z,1.40
2023-03-16T13:21:42.628Z,1.90
2023-03-16T13:24:55.471Z,2.30
2023-03-16T13:27:59.636Z,1.67
2023-03-16T13:31:02.964Z,1.70
2023-03-16T13:34:08.451Z,1.42
2023-03-16T13:37:15.200Z,0.80
2023-03-16T13:40:24.057Z,1.10
2023-03-16T13:43:31.977Z,1.38
2023-03-16T13:46:34.478Z,1.35
2023-03-16T13:49:48.773Z,1.50
2023-03-16T13:52:57.755Z,1.98
2023-03-16T13:56:02.809Z,2.00
2023-03-16T13:59:05.499Z,1.48
2023-03-16T14:02:19.374Z,1.20
2023-03-16T14:05:29.471Z,1.42
2023-03-16T14:08:34.052Z,0.90
2023-03-16T14:11:37.132Z,1.20
2023-03-16T14:14:41.613Z,1.35
2023-03-16T14:17:44.688Z,1.30
2023-03-16T14:20:51.496Z,0.93
2023-03-16T14:23:58.158Z,1.55
2023-03-16T14:27:27.586Z,1.08
2023-03-16T14:30:30.902Z,0.80
2023-03-16T14:33:40.178Z,1.17
2023-03-16T14:36:42.980Z,1.08
2023-03-16T14:40:01.730Z,0.95
2023-03-16T14:43:04.942Z,1.37
2023-03-16T14:46:08.480Z,1.85
2023-03-16T14:49:28.241Z,1.23
2023-03-16T14:52:32.670Z,1.30
2023-03-16T14:55:36.527Z,1.38
2023-03-16T14:58:40.320Z,1.92
2023-03-16T15:01:44.812Z,1.45
2023-03-16T15:04:48.782Z,1.20
2023-03-16T15:07:55.003Z,1.50
2023-03-16T15:11:06.814Z,1.00
2023-03-16T15:14:37.342Z,1.47
2023-03-16T15:17:39.703Z,1.42
2023-03-16T15:20:44.818Z,1.38
2023-03-16T15:23:48.052Z,1.10
2023-03-16T15:26:52.408Z,1.30
2023-03-16T15:29:54.761Z,1.17
2023-03-16T15:32:57.488Z,1.30
2023-03-16T15:36:03.453Z,2.07
2023-03-16T15:39:08.317Z,1.67
2023-03-16T15:42:19.145Z,2.13
2023-03-16T15:45:23.454Z,1.90
2023-03-16T15:48:26.312Z,2.28
2023-03-16T15:51:31.188Z,2.67
2023-03-16T15:54:36.945Z,1.73
2023-03-16T15:57:40.402Z,2.42
2023-03-16T16:00:43.339Z,1.73
2023-03-16T16:03:46.169Z,2.13
2023-03-16T16:06:50.272Z,1.20
2023-03-16T16:09:57.306Z,1.20
2023-03-16T16:13:01.455Z,1.20
2023-03-16T16:16:04.096Z,1.60
2023-03-16T16:19:06.531Z,1.63
2023-03-16T16:22:13.241Z,1.55
2023-03-16T16:25:16.493Z,1.35
2023-03-16T16:28:22.759Z,1.45
2023-03-16T16:31:27.955Z,1.73
2023-03-16T16:34:31.336Z,1.27
2023-03-16T16:37:33.804Z,1.80
2023-03-16T16:40:39.886Z,1.33
2023-03-16T16:43:47.144Z,1.38
2023-03-16T16:46:52.034Z,1.17
2023-03-16T16:49:54.478Z,1.70
2023-03-16T16:52:57.672Z,1.60
2023-03-16T16:56:00.462Z,2.15
2023-03-16T16:59:13.517Z,1.90
2023-03-16T17:02:44.706Z,2.28
2023-03-16T17:05:47.422Z,2.38
2023-03-16T17:08:50.499Z,1.83
2023-03-16T17:11:56.241Z,2.17
2023-03-16T17:14:58.905Z,1.83
2023-03-16T17:18:11.205Z,2.27
2023-03-16T17:21:16.087Z,2.15
2023-03-16T17:24:18.813Z,2.58
2023-03-16T17:27:31.537Z,2.00
2023-03-16T17:30:34.444Z,2.42
2023-03-16T17:33:37.196Z,2.95
2023-03-16T17:36:40.186Z,2.70
2023-03-16T17:39:44.621Z,2.20
2023-03-16T17:42:48.839Z,2.10
2023-03-16T17:45:52.525Z,2.85
2023-03-16T17:48:56.233Z,2.67
2023-03-16T17:51:59.044Z,2.35
2023-03-16T17:55:01.836Z,2.45
2023-03-16T17:58:05.858Z,2.90
2023-03-16T18:01:12.105Z,2.47
2023-03-16T18:04:23.444Z,2.97
2023-03-16T18:07:26.745Z,3.15
2023-03-16T18:10:31.526Z,3.10
2023-03-16T18:13:40.260Z,3.33
2023-03-16T18:16:43.339Z,3.20
2023-03-16T18:19:46.813Z,4.17
2023-03-16T18:22:50.432Z,4.10
2023-03-16T18:25:55.035Z,5.55
2023-03-16T18:28:59.367Z,7.50
2023-03-16T18:32:02.731Z,9.02
2023-03-16T18:35:06.820Z,7.70
2023-03-16T18:38:18.859Z,5.43
2023-03-16T18:41:24.359Z,6.13
2023-03-16T18:44:27.662Z,3.40
2023-03-16T18:47:32.636Z,4.57
2023-03-16T18:50:36.421Z,4.10
2023-03-16T18:53:39.107Z,3.45
2023-03-16T18:56:42.678Z,5.07
2023-03-16T18:59:45.994Z,4.80
2023-03-16T19:02:52.843Z,4.43
2023-03-16T19:05:57.668Z,9.30
2023-03-16T19:09:14.832Z,4.78
2023-03-16T19:12:21.250Z,4.50
2023-03-16T19:15:28.278Z,4.70
2023-03-16T19:18:31.497Z,3.47
2023-03-16T19:21:34.440Z,4.73
2023-03-16T19:24:48.676Z,2.72
2023-03-16T19:27:52.273Z,5.00
2023-03-16T19:30:56.991Z,7.07
2023-03-16T19:34:00.084Z,9.40
2023-03-16T19:37:04.549Z,10.20
2023-03-16T19:40:07.738Z,10.55
2023-03-16T19:43:21.670Z,11.93
2023-03-16T19:46:29.015Z,10.80
2023-03-16T19:49:31.896Z,12.15
2023-03-16T19:52:35.122Z,11.67
2023-03-16T19:55:38.225Z,11.98
2023-03-16T19:58:43.414Z,9.82
2023-03-16T20:01:47.481Z,10.88
2023-03-16T20:04:50.463Z,9.80
2023-03-16T20:07:55.398Z,9.30
2023-03-16T20:11:07.487Z,10.43
2023-03-16T20:14:20.231Z,10.77
2023-03-16T20:17:28.590Z,11.90
2023-03-16T20:20:37.593Z,13.30
2023-03-16T20:23:41.026Z,11.90
2023-03-16T20:26:44.778Z,11.57
2023-03-16T20:29:48.503Z,14.00
2023-03-16T20:32:52.010Z,15.38
2023-03-16T20:35:59.307Z,16.58
2023-03-16T20:39:03.162Z,30.52
2023-03-16T20:42:15.927Z,38.70
2023-03-16T20:45:20.986Z,29.53
2023-03-16T20:48:25.659Z,26.35
2023-03-16T20:51:28.961Z,21.15
2023-03-16T20:54:31.727Z,19.40
2023-03-16T20:57:35.055Z,15.63
2023-03-16T21:00:39.365Z,16.10
2023-03-16T21:03:42.283Z,13.70
2023-03-16T21:06:45.048Z,14.60
2023-03-16T21:09:50.359Z,12.07
2023-03-16T21:12:55.890Z,12.65
2023-03-16T21:16:01.668Z,9.43
2023-03-16T21:19:12.984Z,9.73
2023-03-16T21:22:26.962Z,10.57
2023-03-16T21:25:44.942Z,10.33
2023-03-16T21:29:18.346Z,12.82
2023-03-16T21:32:24.141Z,9.60
2023-03-16T21:35:32.688Z,9.50
2023-03-16T21:38:35.606Z,8.48
2023-03-16T21:41:38.146Z,9.18
2023-03-16T21:44:40.899Z,9.75
2023-03-16T21:47:44.226Z,8.67
2023-03-16T21:50:48.559Z,7.80
2023-03-16T21:53:51.963Z,9.15
2023-03-16T21:56:54.614Z,7.67
2023-03-16T21:59:57.272Z,7.47
2023-03-16T22:03:01.052Z,6.35
2023-03-16T22:06:04.113Z,5.63
2023-03-16T22:09:07.315Z,2.40
2023-03-16T22:12:11.710Z,3.50
2023-03-16T22:15:14.813Z,3.78
2023-03-16T22:18:38.512Z,3.60
2023-03-16T22:21:43.010Z,3.42
2023-03-16T22:24:46.116Z,4.05
2023-03-16T22:27:49.401Z,2.47
2023-03-16T22:30:52.745Z,3.55
2023-03-16T22:33:56.309Z,3.35
2023-03-16T22:37:00.664Z,3.25
2023-03-16T22:40:04.362Z,3.33
2023-03-16T22:43:16.607Z,2.95
2023-03-16T22:46:24.613Z,3.42
2023-03-16T22:49:28.354Z,2.80
2023-03-16T22:52:34.772Z,4.10
2023-03-16T22:55:39.675Z,5.70
2023-03-16T22:58:52.993Z,4.30
2023-03-16T23:01:56.514Z,4.85
2023-03-16T23:04:59.875Z,5.88
2023-03-16T23:08:12.266Z,5.88
2023-03-16T23:11:38.185Z,5.63
2023-03-16T23:14:41.333Z,6.13
2023-03-16T23:17:44.304Z,6.88
2023-03-16T23:20:48.077Z,6.60
2023-03-16T23:24:03.177Z,7.30
2023-03-16T23:27:18.469Z,6.63
2023-03-16T23:30:25.799Z,5.67
2023-03-16T23:33:28.356Z,6.28
2023-03-16T23:36:31.991Z,6.63
2023-03-16T23:39:34.698Z,6.80
2023-03-16T23:42:37.418Z,6.53
2023-03-16T23:45:46.618Z,6.43
2023-03-16T23:48:51.650Z,7.07
2023-03-16T23:51:56.295Z,6.97
2023-03-16T23:55:00.843Z,6.93
2023-03-16T23:58:04.001Z,6.30
